< < Back
Terminal Aerodrome Forecast


Current Version              Previous Versions:   1  2  3  4  5  6  7  8  9  

Terminal Aerodrome Forecast

708
FTUS44 KMRX 300520
TAFTYS
TAF
KTYS 300520Z 3006/3106 04003KT P6SM SCT250=

Latest METAR

998
SAUS80 KWBC 310000 RRD
MTRTYS
METAR KTYS 302353Z 13003KT 10SM SCT070 SCT120 SCT250 31/18 A2999 RMK AO2
SLP144 T03060183 10344 20306 56009


USA.gov is the U.S. government's official web portal to all federal, state and local government web resources and services.